createdAt,value
2022-11-15T00:01:02.516Z,4.55
2022-11-15T00:03:47.582Z,6.05
2022-11-15T00:06:33.333Z,6.55
2022-11-15T00:09:18.180Z,7.20
2022-11-15T00:12:03.122Z,5.45
2022-11-15T00:14:47.959Z,4.65
2022-11-15T00:17:32.883Z,6.38
2022-11-15T00:20:18.586Z,6.35
2022-11-15T00:23:05.035Z,6.43
2022-11-15T00:25:57.250Z,4.65
2022-11-15T00:28:42.586Z,5.07
2022-11-15T00:31:27.407Z,4.28
2022-11-15T00:34:12.222Z,9.10
2022-11-15T00:36:57.232Z,5.88
2022-11-15T00:39:42.322Z,5.78
2022-11-15T00:42:27.551Z,4.95
2022-11-15T00:45:12.579Z,6.60
2022-11-15T00:47:57.626Z,6.53
2022-11-15T00:50:42.484Z,7.75
2022-11-15T00:53:27.720Z,4.80
2022-11-15T00:56:13.090Z,6.43
2022-11-15T00:58:58.267Z,4.50
2022-11-15T01:01:43.219Z,5.15
2022-11-15T01:04:28.482Z,5.30
2022-11-15T01:07:13.681Z,3.80
2022-11-15T01:09:58.430Z,8.00
2022-11-15T01:12:43.401Z,6.70
2022-11-15T01:15:28.651Z,4.35
2022-11-15T01:18:13.574Z,6.43
2022-11-15T01:20:59.114Z,5.57
2022-11-15T01:23:44.333Z,7.63
2022-11-15T01:26:29.323Z,5.80
2022-11-15T01:29:14.883Z,6.88
2022-11-15T01:31:59.810Z,4.15
2022-11-15T01:34:44.553Z,7.03
2022-11-15T01:37:29.794Z,6.13
2022-11-15T01:40:15.010Z,4.78
2022-11-15T01:42:59.868Z,6.13
2022-11-15T01:45:46.322Z,4.53
2022-11-15T01:48:34.607Z,4.80
2022-11-15T01:51:21.364Z,5.40
2022-11-15T01:54:10.448Z,4.78
2022-11-15T01:57:07.838Z,7.07
2022-11-15T01:59:52.794Z,4.63
2022-11-15T02:02:38.548Z,5.47
2022-11-15T02:05:23.481Z,5.97
2022-11-15T02:08:09.648Z,4.07
2022-11-15T02:10:54.735Z,4.88
2022-11-15T02:13:40.127Z,5.93
2022-11-15T02:16:50.043Z,3.47
2022-11-15T02:20:16.530Z,5.05
2022-11-15T02:23:50.672Z,5.15
2022-11-15T02:26:57.555Z,4.22
2022-11-15T02:29:42.427Z,3.95
2022-11-15T02:32:27.163Z,4.57
2022-11-15T02:35:22.374Z,5.40
2022-11-15T02:38:18.190Z,4.65
2022-11-15T02:41:13.556Z,5.82
2022-11-15T02:44:22.750Z,4.78
2022-11-15T02:47:15.494Z,5.10
2022-11-15T02:50:04.231Z,4.45
2022-11-15T02:52:50.241Z,4.57
2022-11-15T02:55:37.262Z,4.93
2022-11-15T02:58:30.726Z,3.88
2022-11-15T03:01:29.220Z,5.30
2022-11-15T03:04:27.345Z,6.13
2022-11-15T03:07:18.184Z,4.65
2022-11-15T03:10:09.482Z,4.78
2022-11-15T03:13:02.032Z,7.18
2022-11-15T03:16:11.767Z,4.40
2022-11-15T03:19:21.784Z,5.93
2022-11-15T03:22:09.879Z,4.25
2022-11-15T03:24:58.042Z,4.20
2022-11-15T03:27:49.679Z,4.80
2022-11-15T03:30:35.875Z,9.23
2022-11-15T03:33:22.277Z,4.38
2022-11-15T03:36:08.796Z,4.57
2022-11-15T03:38:57.036Z,4.20
2022-11-15T03:41:49.986Z,5.85
2022-11-15T03:44:47.774Z,4.22
2022-11-15T03:47:40.540Z,5.88
2022-11-15T03:50:25.902Z,4.70
2022-11-15T03:53:13.233Z,5.05
2022-11-15T03:55:58.768Z,3.72
2022-11-15T03:58:43.639Z,4.95
2022-11-15T04:01:28.885Z,6.18
2022-11-15T04:04:14.286Z,7.43
2022-11-15T04:07:03.136Z,6.20
2022-11-15T04:10:03.157Z,5.45
2022-11-15T04:12:48.638Z,4.97
2022-11-15T04:15:33.996Z,6.15
2022-11-15T04:18:19.275Z,3.85
2022-11-15T04:21:22.798Z,3.67
2022-11-15T04:24:13.633Z,4.15
2022-11-15T04:26:59.067Z,4.57
2022-11-15T04:29:44.250Z,3.65
2022-11-15T04:32:29.180Z,6.50
2022-11-15T04:35:14.544Z,4.18
2022-11-15T04:38:00.044Z,5.72
2022-11-15T04:40:45.074Z,3.72
2022-11-15T04:43:30.752Z,5.25
2022-11-15T04:46:16.223Z,5.10
2022-11-15T04:49:01.403Z,3.72
2022-11-15T04:51:46.371Z,3.90
2022-11-15T04:54:31.691Z,8.98
2022-11-15T04:57:16.516Z,5.38
2022-11-15T05:00:05.135Z,4.38
2022-11-15T05:03:09.027Z,3.70
2022-11-15T05:05:54.118Z,4.32
2022-11-15T05:08:39.046Z,6.07
2022-11-15T05:11:24.116Z,6.18
2022-11-15T05:14:09.025Z,4.65
2022-11-15T05:16:53.999Z,5.97
2022-11-15T05:19:39.350Z,5.82
2022-11-15T05:22:24.851Z,6.32
2022-11-15T05:25:09.880Z,6.53
2022-11-15T05:27:54.745Z,3.65
2022-11-15T05:30:39.745Z,4.88
2022-11-15T05:33:24.888Z,6.05
2022-11-15T05:36:12.967Z,5.03
2022-11-15T05:38:58.231Z,5.95
2022-11-15T05:41:50.131Z,5.50
2022-11-15T05:44:37.192Z,4.68
2022-11-15T05:47:25.579Z,4.05
2022-11-15T05:50:13.698Z,5.40
2022-11-15T05:53:04.695Z,5.38
2022-11-15T05:55:50.167Z,4.70
2022-11-15T05:58:35.537Z,6.05
2022-11-15T06:01:20.338Z,3.13
2022-11-15T06:04:05.469Z,7.15
2022-11-15T06:06:50.574Z,4.72
2022-11-15T06:09:35.542Z,6.05
2022-11-15T06:12:20.598Z,4.70
2022-11-15T06:15:05.896Z,4.70
2022-11-15T06:17:50.762Z,4.88
2022-11-15T06:20:35.788Z,3.67
2022-11-15T06:23:20.885Z,6.43
2022-11-15T06:26:06.034Z,4.43
2022-11-15T06:28:50.932Z,7.30
2022-11-15T06:31:35.963Z,6.38
2022-11-15T06:34:21.115Z,6.13
2022-11-15T06:37:06.286Z,5.05
2022-11-15T06:39:51.201Z,3.40
2022-11-15T06:42:36.406Z,5.32
2022-11-15T06:45:21.579Z,4.65
2022-11-15T06:48:06.726Z,5.85
2022-11-15T06:50:55.438Z,6.55
2022-11-15T06:53:40.326Z,4.57
2022-11-15T06:56:25.219Z,8.98
2022-11-15T06:59:10.383Z,6.22
2022-11-15T07:01:55.348Z,5.30
2022-11-15T07:04:40.403Z,5.53
2022-11-15T07:07:25.492Z,4.20
2022-11-15T07:10:10.598Z,3.67
2022-11-15T07:12:55.945Z,4.18
2022-11-15T07:15:40.883Z,5.80
2022-11-15T07:18:25.791Z,7.35
2022-11-15T07:21:12.083Z,7.18
2022-11-15T07:23:57.041Z,6.22
2022-11-15T07:26:41.891Z,3.45
2022-11-15T07:29:27.250Z,9.82
2022-11-15T07:32:12.188Z,7.18
2022-11-15T07:34:57.505Z,6.72
2022-11-15T07:37:42.534Z,4.60
2022-11-15T07:40:28.806Z,3.95
2022-11-15T07:43:14.104Z,4.57
2022-11-15T07:45:59.699Z,8.18
2022-11-15T07:48:45.586Z,5.13
2022-11-15T07:51:30.611Z,6.82
2022-11-15T07:54:15.786Z,3.67
2022-11-15T07:57:06.629Z,4.47
2022-11-15T07:59:52.497Z,8.02
2022-11-15T08:02:37.805Z,5.57
2022-11-15T08:05:22.941Z,5.75
2022-11-15T08:08:10.255Z,5.00
2022-11-15T08:10:55.101Z,5.22
2022-11-15T08:13:39.863Z,5.22
2022-11-15T08:16:24.939Z,5.38
2022-11-15T08:19:09.674Z,3.80
2022-11-15T08:21:54.549Z,5.40
2022-11-15T08:24:39.579Z,4.47
2022-11-15T08:27:24.703Z,6.72
2022-11-15T08:30:10.347Z,5.45
2022-11-15T08:32:58.223Z,8.30
2022-11-15T08:35:44.034Z,7.13
2022-11-15T08:38:32.407Z,7.55
2022-11-15T08:44:06.635Z,5.30
2022-11-15T08:46:51.915Z,7.20
2022-11-15T08:49:37.007Z,9.00
2022-11-15T08:52:22.271Z,10.20
2022-11-15T08:55:07.890Z,7.22
2022-11-15T08:57:52.744Z,9.70
2022-11-15T09:00:37.686Z,7.43
2022-11-15T09:03:22.529Z,9.65
2022-11-15T09:06:07.677Z,6.97
2022-11-15T09:08:53.150Z,9.35
2022-11-15T09:11:38.374Z,7.78
2022-11-15T09:14:23.322Z,7.50
2022-11-15T09:17:09.557Z,11.50
2022-11-15T09:19:54.448Z,11.20
2022-11-15T09:22:39.989Z,9.07
2022-11-15T09:25:25.122Z,11.15
2022-11-15T09:28:09.991Z,9.48
2022-11-15T09:31:02.514Z,7.80
2022-11-15T09:33:47.380Z,9.52
2022-11-15T09:36:32.430Z,7.82
2022-11-15T09:39:17.673Z,8.77
2022-11-15T09:42:41.534Z,7.70
2022-11-15T09:45:54.427Z,7.05
2022-11-15T09:48:54.511Z,8.77
2022-11-15T09:51:29.774Z,7.82
2022-11-15T09:54:37.892Z,9.35
2022-11-15T09:56:57.216Z,7.13
2022-11-15T09:59:46.066Z,10.63
2022-11-15T10:02:41.051Z,7.40
2022-11-15T10:05:12.892Z,9.20
2022-11-15T10:07:55.456Z,7.22
2022-11-15T10:10:28.483Z,6.57
2022-11-15T10:12:55.051Z,9.77
2022-11-15T10:15:24.777Z,7.45
2022-11-15T10:18:03.285Z,7.50
2022-11-15T10:20:40.116Z,15.90
2022-11-15T10:23:07.800Z,16.83
2022-11-15T10:25:35.070Z,8.77
2022-11-15T10:28:30.189Z,8.55
2022-11-15T10:30:59.325Z,8.23
2022-11-15T10:33:39.530Z,8.18
2022-11-15T10:36:14.410Z,8.07
2022-11-15T10:38:50.004Z,6.50
2022-11-15T10:41:28.458Z,6.57
2022-11-15T10:44:03.929Z,5.10
2022-11-15T10:46:46.188Z,7.25
2022-11-15T10:49:23.353Z,7.75
2022-11-15T10:51:53.102Z,3.55
2022-11-15T10:54:26.308Z,3.92
2022-11-15T10:56:54.835Z,4.40
2022-11-15T10:59:32.652Z,5.30
2022-11-15T11:02:01.281Z,4.95
2022-11-15T11:04:27.692Z,3.75
2022-11-15T11:06:59.072Z,4.22
2022-11-15T11:09:33.038Z,2.35
2022-11-15T11:12:00.076Z,3.10
2022-11-15T11:14:32.297Z,3.80
2022-11-15T11:17:17.507Z,4.45
2022-11-15T11:19:54.274Z,9.48
2022-11-15T11:22:28.289Z,3.38
2022-11-15T11:25:05.109Z,1.95
2022-11-15T11:27:44.648Z,2.78
2022-11-15T11:30:24.707Z,2.47
2022-11-15T11:33:13.595Z,3.13
2022-11-15T11:36:07.131Z,7.90
2022-11-15T11:38:35.945Z,6.32
2022-11-15T11:41:21.002Z,3.50
2022-11-15T11:44:16.043Z,2.47
2022-11-15T11:47:15.118Z,3.20
2022-11-15T11:49:55.063Z,2.35
2022-11-15T11:52:28.536Z,3.20
2022-11-15T11:54:58.245Z,3.72
2022-11-15T11:57:53.847Z,3.47
2022-11-15T12:00:25.163Z,2.22
2022-11-15T12:03:06.994Z,4.40
2022-11-15T12:05:38.501Z,2.00
2022-11-15T12:08:22.932Z,3.13
2022-11-15T12:10:54.272Z,3.03
2022-11-15T12:13:24.896Z,2.40
2022-11-15T12:16:13.699Z,2.40
2022-11-15T12:18:42.977Z,2.83
2022-11-15T12:21:20.794Z,3.38
2022-11-15T12:23:53.434Z,4.25
2022-11-15T12:26:27.029Z,1.80
2022-11-15T12:29:07.630Z,5.35
2022-11-15T12:31:40.280Z,3.53
2022-11-15T12:34:31.139Z,3.20
2022-11-15T12:36:57.529Z,1.48
2022-11-15T12:40:19.275Z,2.97
2022-11-15T12:43:00.663Z,2.60
2022-11-15T12:45:37.731Z,3.00
2022-11-15T12:48:16.365Z,3.53
2022-11-15T12:50:51.557Z,2.95
2022-11-15T12:53:24.250Z,2.03
2022-11-15T12:56:02.870Z,3.47
2022-11-15T12:58:42.373Z,2.83
2022-11-15T13:01:08.900Z,3.20
2022-11-15T13:03:35.802Z,3.83
2022-11-15T13:06:05.462Z,3.58
2022-11-15T13:08:38.869Z,6.53
2022-11-15T13:11:42.598Z,3.15
2022-11-15T13:14:46.659Z,7.47
2022-11-15T13:17:25.041Z,3.42
2022-11-15T13:20:12.542Z,5.10
2022-11-15T13:22:55.176Z,3.97
2022-11-15T13:25:27.500Z,5.03
2022-11-15T13:27:55.459Z,6.53
2022-11-15T13:30:24.487Z,4.05
2022-11-15T13:32:51.259Z,8.85
2022-11-15T13:35:28.574Z,4.28
2022-11-15T13:37:56.596Z,6.97
2022-11-15T13:40:31.226Z,4.20
2022-11-15T13:42:58.703Z,4.45
2022-11-15T13:45:25.788Z,4.90
2022-11-15T13:47:57.116Z,2.85
2022-11-15T13:50:30.754Z,5.00
2022-11-15T13:52:59.774Z,3.78
2022-11-15T13:55:26.554Z,3.95
2022-11-15T13:57:58.665Z,3.53
2022-11-15T14:00:44.063Z,4.18
2022-11-15T14:03:23.007Z,3.28
2022-11-15T14:06:15.909Z,4.40
2022-11-15T14:09:02.590Z,4.07
2022-11-15T14:11:29.011Z,3.88
2022-11-15T14:14:12.715Z,2.97
2022-11-15T14:16:47.891Z,3.97
2022-11-15T14:19:35.428Z,3.85
2022-11-15T14:22:08.836Z,4.20
2022-11-15T14:24:35.314Z,4.57
2022-11-15T14:27:22.961Z,5.70
2022-11-15T14:29:49.809Z,8.60
2022-11-15T14:32:20.705Z,5.35
2022-11-15T14:34:47.739Z,4.53
2022-11-15T14:37:19.746Z,9.40
2022-11-15T14:39:46.175Z,6.25
2022-11-15T14:42:12.605Z,3.45
2022-11-15T14:44:42.278Z,4.68
2022-11-15T14:47:12.126Z,3.35
2022-11-15T14:49:38.606Z,3.42
2022-11-15T14:52:20.295Z,4.97
2022-11-15T14:54:46.823Z,3.63
2022-11-15T14:57:13.215Z,3.38
2022-11-15T14:59:39.591Z,3.38
2022-11-15T15:02:17.932Z,3.33
2022-11-15T15:04:44.342Z,3.90
2022-11-15T15:07:10.935Z,3.90
2022-11-15T15:09:37.387Z,5.03
2022-11-15T15:12:06.494Z,6.32
2022-11-15T15:16:59.527Z,4.47
2022-11-15T15:19:26.331Z,4.32
2022-11-15T15:21:52.775Z,2.80
2022-11-15T15:24:19.165Z,2.88
2022-11-15T15:26:45.582Z,7.97
2022-11-15T15:29:11.968Z,2.28
2022-11-15T15:31:38.366Z,3.13
2022-11-15T15:34:04.814Z,2.05
2022-11-15T15:36:31.246Z,2.78
2022-11-15T15:38:57.622Z,2.53
2022-11-15T15:41:24.239Z,1.85
2022-11-15T15:43:50.634Z,4.50
2022-11-15T15:46:19.289Z,1.83
2022-11-15T15:48:46.191Z,1.60
2022-11-15T15:51:19.601Z,1.23
2022-11-15T15:53:47.339Z,3.13
2022-11-15T15:56:13.758Z,3.63
2022-11-15T15:58:40.186Z,1.85
2022-11-15T16:01:06.674Z,1.95
2022-11-15T16:03:33.281Z,1.60
2022-11-15T16:05:59.659Z,2.15
2022-11-15T16:08:31.916Z,2.22
2022-11-15T16:11:07.060Z,1.60
2022-11-15T16:13:33.796Z,1.88
2022-11-15T16:16:01.177Z,1.80
2022-11-15T16:18:27.672Z,2.25
2022-11-15T16:20:57.472Z,3.50
2022-11-15T16:23:25.352Z,3.05
2022-11-15T16:25:53.725Z,4.35
2022-11-15T16:28:22.716Z,2.90
2022-11-15T16:30:55.563Z,3.72
2022-11-15T16:33:23.533Z,1.10
2022-11-15T16:35:50.018Z,1.90
2022-11-15T16:38:16.826Z,3.00
2022-11-15T16:40:43.610Z,2.70
2022-11-15T16:43:10.394Z,4.45
2022-11-15T16:45:37.099Z,1.30
2022-11-15T16:48:04.042Z,3.65
2022-11-15T16:50:34.975Z,2.63
2022-11-15T16:53:02.667Z,2.72
2022-11-15T16:55:30.221Z,4.43
2022-11-15T16:58:01.295Z,2.25
2022-11-15T17:00:27.929Z,2.78
2022-11-15T17:02:55.880Z,2.13
2022-11-15T17:05:23.763Z,2.50
2022-11-15T17:07:54.040Z,5.82
2022-11-15T17:10:25.897Z,2.70
2022-11-15T17:12:52.796Z,2.33
2022-11-15T17:15:19.571Z,2.00
2022-11-15T17:17:52.491Z,1.75
2022-11-15T17:20:20.302Z,2.90
2022-11-15T17:22:47.688Z,2.55
2022-11-15T17:25:14.667Z,1.92
2022-11-15T17:27:41.216Z,3.13
2022-11-15T17:30:08.477Z,2.13
2022-11-15T17:32:38.398Z,3.20
2022-11-15T17:35:11.975Z,2.75
2022-11-15T17:37:41.568Z,3.53
2022-11-15T17:40:08.457Z,3.55
2022-11-15T17:42:34.916Z,3.42
2022-11-15T17:45:08.128Z,2.58
2022-11-15T17:47:36.235Z,3.13
2022-11-15T17:50:02.733Z,3.72
2022-11-15T17:52:29.175Z,2.95
2022-11-15T17:54:55.794Z,3.70
2022-11-15T17:57:22.170Z,4.00
2022-11-15T17:59:48.930Z,5.38
2022-11-15T18:02:15.357Z,4.75
2022-11-15T18:04:41.776Z,4.10
2022-11-15T18:07:08.332Z,5.95
2022-11-15T18:09:34.819Z,2.80
2022-11-15T18:12:01.247Z,4.00
2022-11-15T18:14:27.941Z,4.47
2022-11-15T18:16:54.912Z,4.90
2022-11-15T18:19:21.345Z,2.80
2022-11-15T18:22:07.696Z,3.10
2022-11-15T18:24:35.386Z,4.60
2022-11-15T18:27:03.729Z,2.47
2022-11-15T18:29:30.436Z,4.10
2022-11-15T18:31:58.812Z,4.25
2022-11-15T18:34:28.685Z,4.22
2022-11-15T18:36:55.101Z,2.67
2022-11-15T18:39:21.503Z,5.93
2022-11-15T18:41:48.546Z,3.85
2022-11-15T18:44:15.548Z,2.97
2022-11-15T18:46:42.447Z,4.28
2022-11-15T18:49:09.735Z,2.55
2022-11-15T18:51:37.719Z,3.95
2022-11-15T18:54:04.271Z,5.70
2022-11-15T18:56:31.719Z,8.85
2022-11-15T18:59:00.015Z,8.38
2022-11-15T19:01:28.376Z,5.05
2022-11-15T19:03:56.406Z,5.17
2022-11-15T19:06:24.979Z,6.65
2022-11-15T19:08:54.474Z,6.63
2022-11-15T19:11:23.972Z,5.70
2022-11-15T19:14:06.905Z,3.05
2022-11-15T19:16:36.081Z,4.43
2022-11-15T19:19:06.106Z,7.05
2022-11-15T19:21:33.484Z,7.38
2022-11-15T19:24:00.497Z,4.78
2022-11-15T19:26:28.074Z,5.70
2022-11-15T19:28:56.336Z,5.32
2022-11-15T19:31:23.643Z,5.40
2022-11-15T19:33:51.005Z,5.78
2022-11-15T19:36:28.681Z,6.15
2022-11-15T19:38:55.984Z,7.68
2022-11-15T19:41:23.996Z,3.67
2022-11-15T19:43:51.253Z,5.25
2022-11-15T19:46:23.363Z,5.13
2022-11-15T19:48:50.583Z,5.93
2022-11-15T19:51:22.010Z,5.43
2022-11-15T19:53:49.535Z,9.50
2022-11-15T19:56:17.511Z,4.72
2022-11-15T19:58:44.451Z,7.90
2022-11-15T20:01:25.422Z,5.82
2022-11-15T20:03:55.739Z,4.97
2022-11-15T20:06:24.908Z,7.28
2022-11-15T20:08:51.458Z,7.82
2022-11-15T20:11:18.317Z,5.28
2022-11-15T20:13:45.136Z,6.50
2022-11-15T20:16:17.580Z,7.32
2022-11-15T20:18:44.384Z,10.45
2022-11-15T20:21:11.040Z,8.63
2022-11-15T20:23:38.287Z,9.30
2022-11-15T20:26:07.395Z,9.02
2022-11-15T20:28:34.331Z,9.85
2022-11-15T20:31:01.427Z,8.60
2022-11-15T20:33:28.284Z,8.48
2022-11-15T20:35:54.914Z,10.38
2022-11-15T20:38:22.016Z,9.32
2022-11-15T20:40:49.856Z,9.77
2022-11-15T20:43:17.965Z,12.73
2022-11-15T20:45:48.817Z,10.35
2022-11-15T20:48:15.881Z,9.32
2022-11-15T20:50:44.006Z,14.88
2022-11-15T20:53:11.971Z,10.27
2022-11-15T20:55:47.666Z,9.88
2022-11-15T20:58:15.469Z,7.35
2022-11-15T21:00:43.303Z,8.70
2022-11-15T21:03:09.845Z,7.75
2022-11-15T21:05:41.602Z,7.85
2022-11-15T21:08:09.585Z,12.15
2022-11-15T21:10:55.072Z,9.43
2022-11-15T21:13:22.743Z,9.68
2022-11-15T21:15:49.221Z,5.38
2022-11-15T21:18:15.874Z,8.32
2022-11-15T21:20:42.713Z,4.75
2022-11-15T21:23:09.215Z,6.60
2022-11-15T21:25:35.848Z,5.97
2022-11-15T21:28:02.831Z,6.90
2022-11-15T21:30:29.321Z,7.45
2022-11-15T21:32:55.741Z,2.67
2022-11-15T21:35:22.529Z,5.18
2022-11-15T21:37:55.001Z,3.85
2022-11-15T21:40:23.064Z,3.15
2022-11-15T21:42:49.488Z,3.28
2022-11-15T21:45:15.934Z,6.10
2022-11-15T21:47:46.030Z,4.15
2022-11-15T21:50:13.462Z,6.05
2022-11-15T21:52:40.471Z,4.55
2022-11-15T21:55:07.261Z,5.95
2022-11-15T21:57:33.763Z,5.53
2022-11-15T22:00:18.619Z,4.18
2022-11-15T22:02:45.039Z,3.33
2022-11-15T22:05:11.617Z,4.93
2022-11-15T22:07:38.112Z,3.42
2022-11-15T22:10:05.000Z,5.10
2022-11-15T22:12:31.431Z,5.40
2022-11-15T22:14:57.880Z,5.53
2022-11-15T22:17:44.276Z,7.60
2022-11-15T22:20:29.906Z,4.35
2022-11-15T22:22:58.703Z,4.30
2022-11-15T22:25:25.925Z,5.07
2022-11-15T22:27:53.217Z,6.93
2022-11-15T22:30:19.775Z,5.45
2022-11-15T22:32:46.279Z,5.75
2022-11-15T22:35:13.329Z,4.85
2022-11-15T22:37:39.883Z,7.30
2022-11-15T22:40:07.102Z,6.72
2022-11-15T22:42:33.599Z,5.43
2022-11-15T22:45:00.021Z,5.65
2022-11-15T22:47:26.687Z,7.75
2022-11-15T22:49:53.146Z,7.63
2022-11-15T22:52:19.604Z,6.68
2022-11-15T22:54:46.523Z,7.93
2022-11-15T22:57:12.959Z,6.38
2022-11-15T22:59:39.430Z,13.13
2022-11-15T23:02:05.907Z,7.57
2022-11-15T23:04:32.428Z,7.57
2022-11-15T23:06:58.996Z,7.63
2022-11-15T23:09:25.590Z,6.45
2022-11-15T23:12:10.563Z,7.70
2022-11-15T23:14:37.088Z,8.55
2022-11-15T23:17:03.560Z,6.72
2022-11-15T23:19:30.166Z,7.20
2022-11-15T23:22:15.287Z,6.00
2022-11-15T23:24:41.818Z,7.95
2022-11-15T23:27:08.369Z,9.63
2022-11-15T23:29:56.554Z,6.95
2022-11-15T23:32:41.401Z,8.37
2022-11-15T23:35:08.131Z,8.55
2022-11-15T23:37:34.639Z,9.13
2022-11-15T23:40:01.107Z,8.02
2022-11-15T23:42:27.630Z,10.82
2022-11-15T23:44:54.071Z,9.07
2022-11-15T23:47:20.519Z,10.60
2022-11-15T23:49:47.200Z,7.63
2022-11-15T23:52:15.339Z,7.93
2022-11-15T23:54:42.226Z,7.85
2022-11-15T23:57:11.830Z,6.20
2022-11-15T23:59:43.477Z,10.25
